sensor_id;sensor_type;location;lat;lon;timestamp;temperature;humidity
68387;DHT22;55338;43.062;25.624;2022-07-04T00:00:14;21.70;78.10
68387;DHT22;55338;43.062;25.624;2022-07-04T00:02:41;21.60;78.10
68387;DHT22;55338;43.062;25.624;2022-07-04T00:05:08;21.60;78.10
68387;DHT22;55338;43.062;25.624;2022-07-04T00:07:39;21.50;78.90
68387;DHT22;55338;43.062;25.624;2022-07-04T00:10:07;21.50;78.40
68387;DHT22;55338;43.062;25.624;2022-07-04T00:12:33;21.50;79.40
68387;DHT22;55338;43.062;25.624;2022-07-04T00:15:00;21.50;80.10
68387;DHT22;55338;43.062;25.624;2022-07-04T00:17:26;21.40;79.20
68387;DHT22;55338;43.062;25.624;2022-07-04T00:19:52;21.40;79.20
68387;DHT22;55338;43.062;25.624;2022-07-04T00:22:18;21.40;80.00
68387;DHT22;55338;43.062;25.624;2022-07-04T00:24:44;21.40;79.70
68387;DHT22;55338;43.062;25.624;2022-07-04T00:27:09;21.30;79.70
68387;DHT22;55338;43.062;25.624;2022-07-04T00:29:35;21.30;79.70
68387;DHT22;55338;43.062;25.624;2022-07-04T00:32:01;21.20;80.00
68387;DHT22;55338;43.062;25.624;2022-07-04T00:34:27;21.10;80.00
68387;DHT22;55338;43.062;25.624;2022-07-04T00:36:53;21.10;79.90
68387;DHT22;55338;43.062;25.624;2022-07-04T00:39:20;21.10;79.60
68387;DHT22;55338;43.062;25.624;2022-07-04T00:41:46;21.10;79.70
68387;DHT22;55338;43.062;25.624;2022-07-04T00:44:13;21.10;79.70
68387;DHT22;55338;43.062;25.624;2022-07-04T00:46:40;21.10;79.60
68387;DHT22;55338;43.062;25.624;2022-07-04T00:49:07;21.00;79.40
68387;DHT22;55338;43.062;25.624;2022-07-04T00:51:33;21.00;79.90
68387;DHT22;55338;43.062;25.624;2022-07-04T00:53:59;20.90;80.00
68387;DHT22;55338;43.062;25.624;2022-07-04T00:56:26;20.90;79.80
68387;DHT22;55338;43.062;25.624;2022-07-04T00:58:52;20.80;80.70
68387;DHT22;55338;43.062;25.624;2022-07-04T01:01:19;20.80;80.60
68387;DHT22;55338;43.062;25.624;2022-07-04T01:03:46;20.70;82.40
68387;DHT22;55338;43.062;25.624;2022-07-04T01:06:14;20.70;83.00
68387;DHT22;55338;43.062;25.624;2022-07-04T01:08:42;20.60;82.40
68387;DHT22;55338;43.062;25.624;2022-07-04T01:11:08;20.60;82.50
68387;DHT22;55338;43.062;25.624;2022-07-04T01:13:35;20.50;82.70
68387;DHT22;55338;43.062;25.624;2022-07-04T01:16:02;20.50;81.70
68387;DHT22;55338;43.062;25.624;2022-07-04T01:18:28;20.40;81.60
68387;DHT22;55338;43.062;25.624;2022-07-04T01:20:54;20.40;81.70
68387;DHT22;55338;43.062;25.624;2022-07-04T01:23:20;20.40;81.50
68387;DHT22;55338;43.062;25.624;2022-07-04T01:25:45;20.40;81.40
68387;DHT22;55338;43.062;25.624;2022-07-04T01:28:11;20.40;82.70
68387;DHT22;55338;43.062;25.624;2022-07-04T01:30:38;20.40;83.80
68387;DHT22;55338;43.062;25.624;2022-07-04T01:33:04;20.30;83.20
68387;DHT22;55338;43.062;25.624;2022-07-04T01:35:30;20.20;81.80
68387;DHT22;55338;43.062;25.624;2022-07-04T01:37:56;20.00;82.20
68387;DHT22;55338;43.062;25.624;2022-07-04T01:40:23;19.90;82.30
68387;DHT22;55338;43.062;25.624;2022-07-04T01:42:49;19.90;83.10
68387;DHT22;55338;43.062;25.624;2022-07-04T01:45:15;19.90;84.90
68387;DHT22;55338;43.062;25.624;2022-07-04T01:47:41;19.80;85.40
68387;DHT22;55338;43.062;25.624;2022-07-04T01:50:09;19.80;84.90
68387;DHT22;55338;43.062;25.624;2022-07-04T01:52:41;19.80;84.50
68387;DHT22;55338;43.062;25.624;2022-07-04T01:55:11;19.80;85.50
68387;DHT22;55338;43.062;25.624;2022-07-04T01:57:38;19.80;85.80
68387;DHT22;55338;43.062;25.624;2022-07-04T02:00:06;19.80;86.00
68387;DHT22;55338;43.062;25.624;2022-07-04T02:02:51;19.70;86.40
68387;DHT22;55338;43.062;25.624;2022-07-04T02:05:17;19.70;86.50
68387;DHT22;55338;43.062;25.624;2022-07-04T02:07:43;19.70;86.50
68387;DHT22;55338;43.062;25.624;2022-07-04T02:10:10;19.60;86.50
68387;DHT22;55338;43.062;25.624;2022-07-04T02:12:36;19.50;86.90
68387;DHT22;55338;43.062;25.624;2022-07-04T02:15:21;19.60;86.80
68387;DHT22;55338;43.062;25.624;2022-07-04T02:17:47;19.60;86.30
68387;DHT22;55338;43.062;25.624;2022-07-04T02:20:13;19.50;85.90
68387;DHT22;55338;43.062;25.624;2022-07-04T02:22:39;19.50;85.60
68387;DHT22;55338;43.062;25.624;2022-07-04T02:25:05;19.50;84.40
68387;DHT22;55338;43.062;25.624;2022-07-04T02:27:31;19.50;84.10
68387;DHT22;55338;43.062;25.624;2022-07-04T02:29:57;19.50;86.60
68387;DHT22;55338;43.062;25.624;2022-07-04T02:32:23;19.40;87.00
68387;DHT22;55338;43.062;25.624;2022-07-04T02:34:49;19.40;87.00
68387;DHT22;55338;43.062;25.624;2022-07-04T02:37:15;19.40;86.80
68387;DHT22;55338;43.062;25.624;2022-07-04T02:39:41;19.40;86.70
68387;DHT22;55338;43.062;25.624;2022-07-04T02:42:07;19.40;86.10
68387;DHT22;55338;43.062;25.624;2022-07-04T02:44:32;19.40;86.10
68387;DHT22;55338;43.062;25.624;2022-07-04T02:46:58;19.30;87.10
68387;DHT22;55338;43.062;25.624;2022-07-04T02:49:26;19.30;87.20
68387;DHT22;55338;43.062;25.624;2022-07-04T02:51:52;19.30;86.70
68387;DHT22;55338;43.062;25.624;2022-07-04T02:54:18;19.30;86.60
68387;DHT22;55338;43.062;25.624;2022-07-04T02:56:44;19.30;87.20
68387;DHT22;55338;43.062;25.624;2022-07-04T02:59:09;19.30;87.40
68387;DHT22;55338;43.062;25.624;2022-07-04T03:01:35;19.30;87.50
68387;DHT22;55338;43.062;25.624;2022-07-04T03:04:01;19.30;86.70
68387;DHT22;55338;43.062;25.624;2022-07-04T03:06:29;19.30;87.10
68387;DHT22;55338;43.062;25.624;2022-07-04T03:08:54;19.30;87.10
68387;DHT22;55338;43.062;25.624;2022-07-04T03:11:20;19.30;86.50
68387;DHT22;55338;43.062;25.624;2022-07-04T03:13:46;19.30;86.10
68387;DHT22;55338;43.062;25.624;2022-07-04T03:16:12;19.40;85.60
68387;DHT22;55338;43.062;25.624;2022-07-04T03:18:38;19.40;85.40
68387;DHT22;55338;43.062;25.624;2022-07-04T03:21:04;19.40;86.00
68387;DHT22;55338;43.062;25.624;2022-07-04T03:23:33;19.50;85.90
68387;DHT22;55338;43.062;25.624;2022-07-04T03:26:00;19.60;84.50
68387;DHT22;55338;43.062;25.624;2022-07-04T03:28:26;19.60;85.50
68387;DHT22;55338;43.062;25.624;2022-07-04T03:30:52;19.70;85.70
68387;DHT22;55338;43.062;25.624;2022-07-04T03:33:18;19.80;85.50
68387;DHT22;55338;43.062;25.624;2022-07-04T03:35:44;19.90;85.10
68387;DHT22;55338;43.062;25.624;2022-07-04T03:38:10;19.90;84.80
68387;DHT22;55338;43.062;25.624;2022-07-04T03:40:36;19.90;85.10
68387;DHT22;55338;43.062;25.624;2022-07-04T03:43:04;20.00;84.50
68387;DHT22;55338;43.062;25.624;2022-07-04T03:45:32;20.10;83.90
68387;DHT22;55338;43.062;25.624;2022-07-04T03:47:58;20.30;83.30
68387;DHT22;55338;43.062;25.624;2022-07-04T03:50:24;20.40;84.00
68387;DHT22;55338;43.062;25.624;2022-07-04T03:52:51;20.50;83.20
68387;DHT22;55338;43.062;25.624;2022-07-04T03:55:17;20.50;82.70
68387;DHT22;55338;43.062;25.624;2022-07-04T03:57:42;20.60;81.60
68387;DHT22;55338;43.062;25.624;2022-07-04T04:00:09;20.80;80.20
68387;DHT22;55338;43.062;25.624;2022-07-04T04:02:36;20.80;81.00
68387;DHT22;55338;43.062;25.624;2022-07-04T04:05:03;21.00;80.70
68387;DHT22;55338;43.062;25.624;2022-07-04T04:07:47;21.10;79.10
68387;DHT22;55338;43.062;25.624;2022-07-04T04:10:13;21.20;78.50
68387;DHT22;55338;43.062;25.624;2022-07-04T04:12:39;21.30;78.30
68387;DHT22;55338;43.062;25.624;2022-07-04T04:15:06;21.40;78.10
68387;DHT22;55338;43.062;25.624;2022-07-04T04:17:32;21.50;78.20
68387;DHT22;55338;43.062;25.624;2022-07-04T04:19:58;21.70;76.20
68387;DHT22;55338;43.062;25.624;2022-07-04T04:22:24;21.80;74.90
68387;DHT22;55338;43.062;25.624;2022-07-04T04:24:50;22.00;75.20
68387;DHT22;55338;43.062;25.624;2022-07-04T04:27:15;22.20;73.20
68387;DHT22;55338;43.062;25.624;2022-07-04T04:29:41;22.20;71.10
68387;DHT22;55338;43.062;25.624;2022-07-04T04:32:07;22.40;71.10
68387;DHT22;55338;43.062;25.624;2022-07-04T04:34:33;22.50;70.70
68387;DHT22;55338;43.062;25.624;2022-07-04T04:37:00;22.80;70.10
68387;DHT22;55338;43.062;25.624;2022-07-04T04:39:25;22.90;73.70
68387;DHT22;55338;43.062;25.624;2022-07-04T04:41:51;23.00;72.80
68387;DHT22;55338;43.062;25.624;2022-07-04T04:44:18;23.20;71.60
68387;DHT22;55338;43.062;25.624;2022-07-04T04:46:45;23.40;70.80
68387;DHT22;55338;43.062;25.624;2022-07-04T04:49:11;23.50;68.30
68387;DHT22;55338;43.062;25.624;2022-07-04T04:51:37;23.70;66.30
68387;DHT22;55338;43.062;25.624;2022-07-04T04:54:04;23.70;66.50
68387;DHT22;55338;43.062;25.624;2022-07-04T04:56:29;23.90;65.70
68387;DHT22;55338;43.062;25.624;2022-07-04T04:58:55;24.10;66.00
68387;DHT22;55338;43.062;25.624;2022-07-04T05:01:21;24.20;64.90
68387;DHT22;55338;43.062;25.624;2022-07-04T05:03:47;24.40;65.60
68387;DHT22;55338;43.062;25.624;2022-07-04T05:06:12;24.50;66.00
68387;DHT22;55338;43.062;25.624;2022-07-04T05:08:38;24.60;66.10
68387;DHT22;55338;43.062;25.624;2022-07-04T05:11:04;24.60;63.80
68387;DHT22;55338;43.062;25.624;2022-07-04T05:13:30;24.90;63.50
68387;DHT22;55338;43.062;25.624;2022-07-04T05:15:56;25.10;61.80
68387;DHT22;55338;43.062;25.624;2022-07-04T05:18:21;25.20;60.50
68387;DHT22;55338;43.062;25.624;2022-07-04T05:20:47;25.30;60.80
68387;DHT22;55338;43.062;25.624;2022-07-04T05:23:13;25.40;60.60
68387;DHT22;55338;43.062;25.624;2022-07-04T05:25:39;25.60;60.00
68387;DHT22;55338;43.062;25.624;2022-07-04T05:28:04;25.80;59.30
68387;DHT22;55338;43.062;25.624;2022-07-04T05:30:31;26.10;58.70
68387;DHT22;55338;43.062;25.624;2022-07-04T05:32:57;26.30;57.70
68387;DHT22;55338;43.062;25.624;2022-07-04T05:35:24;26.40;57.40
68387;DHT22;55338;43.062;25.624;2022-07-04T05:37:51;26.50;57.20
68387;DHT22;55338;43.062;25.624;2022-07-04T05:40:17;26.70;56.40
68387;DHT22;55338;43.062;25.624;2022-07-04T05:42:42;26.90;56.20
68387;DHT22;55338;43.062;25.624;2022-07-04T05:45:08;27.00;56.10
68387;DHT22;55338;43.062;25.624;2022-07-04T05:47:34;27.20;55.40
68387;DHT22;55338;43.062;25.624;2022-07-04T05:50:00;27.30;55.30
68387;DHT22;55338;43.062;25.624;2022-07-04T05:52:26;27.50;54.60
68387;DHT22;55338;43.062;25.624;2022-07-04T05:54:52;27.80;54.20
68387;DHT22;55338;43.062;25.624;2022-07-04T05:57:18;28.10;54.50
68387;DHT22;55338;43.062;25.624;2022-07-04T05:59:43;28.40;53.50
68387;DHT22;55338;43.062;25.624;2022-07-04T06:02:11;28.90;51.70
68387;DHT22;55338;43.062;25.624;2022-07-04T06:04:36;29.10;51.50
68387;DHT22;55338;43.062;25.624;2022-07-04T06:07:02;29.50;50.10
68387;DHT22;55338;43.062;25.624;2022-07-04T06:09:30;30.00;49.00
68387;DHT22;55338;43.062;25.624;2022-07-04T06:11:56;30.20;48.30
68387;DHT22;55338;43.062;25.624;2022-07-04T06:14:21;30.10;48.40
68387;DHT22;55338;43.062;25.624;2022-07-04T06:16:47;30.50;47.30
68387;DHT22;55338;43.062;25.624;2022-07-04T06:19:13;30.70;45.80
68387;DHT22;55338;43.062;25.624;2022-07-04T06:21:39;31.00;45.50
68387;DHT22;55338;43.062;25.624;2022-07-04T06:24:04;31.10;44.80
68387;DHT22;55338;43.062;25.624;2022-07-04T06:26:30;31.30;44.80
68387;DHT22;55338;43.062;25.624;2022-07-04T06:28:56;31.40;44.20
68387;DHT22;55338;43.062;25.624;2022-07-04T06:31:23;31.50;44.10
68387;DHT22;55338;43.062;25.624;2022-07-04T06:33:48;31.90;43.00
68387;DHT22;55338;43.062;25.624;2022-07-04T06:36:33;32.10;42.90
68387;DHT22;55338;43.062;25.624;2022-07-04T06:38:59;32.40;42.30
68387;DHT22;55338;43.062;25.624;2022-07-04T06:41:26;32.80;42.10
68387;DHT22;55338;43.062;25.624;2022-07-04T06:43:53;33.10;41.20
68387;DHT22;55338;43.062;25.624;2022-07-04T06:46:18;33.30;39.90
68387;DHT22;55338;43.062;25.624;2022-07-04T06:48:45;33.50;39.10
68387;DHT22;55338;43.062;25.624;2022-07-04T06:51:11;33.70;38.30
68387;DHT22;55338;43.062;25.624;2022-07-04T06:53:36;33.80;37.60
68387;DHT22;55338;43.062;25.624;2022-07-04T06:56:02;34.20;37.50
68387;DHT22;55338;43.062;25.624;2022-07-04T06:58:28;34.60;37.70
68387;DHT22;55338;43.062;25.624;2022-07-04T07:00:54;34.80;36.40
68387;DHT22;55338;43.062;25.624;2022-07-04T07:03:20;34.90;35.60
68387;DHT22;55338;43.062;25.624;2022-07-04T07:05:45;35.00;37.50
68387;DHT22;55338;43.062;25.624;2022-07-04T07:08:11;35.10;35.90
68387;DHT22;55338;43.062;25.624;2022-07-04T07:10:37;35.50;33.80
68387;DHT22;55338;43.062;25.624;2022-07-04T07:13:03;35.50;32.40
68387;DHT22;55338;43.062;25.624;2022-07-04T07:15:29;35.60;31.30
68387;DHT22;55338;43.062;25.624;2022-07-04T07:17:54;35.70;30.30
68387;DHT22;55338;43.062;25.624;2022-07-04T07:20:20;35.80;30.80
68387;DHT22;55338;43.062;25.624;2022-07-04T07:22:46;36.10;30.70
68387;DHT22;55338;43.062;25.624;2022-07-04T07:25:12;36.30;28.90
68387;DHT22;55338;43.062;25.624;2022-07-04T07:27:39;36.50;28.20
68387;DHT22;55338;43.062;25.624;2022-07-04T07:30:07;36.60;27.50
68387;DHT22;55338;43.062;25.624;2022-07-04T07:32:34;36.80;26.00
68387;DHT22;55338;43.062;25.624;2022-07-04T07:35:00;37.10;25.70
68387;DHT22;55338;43.062;25.624;2022-07-04T07:37:26;37.30;25.40
68387;DHT22;55338;43.062;25.624;2022-07-04T07:39:52;37.60;24.50
68387;DHT22;55338;43.062;25.624;2022-07-04T07:42:18;37.90;25.10
68387;DHT22;55338;43.062;25.624;2022-07-04T07:44:44;37.90;25.10
68387;DHT22;55338;43.062;25.624;2022-07-04T07:47:13;38.10;24.80
68387;DHT22;55338;43.062;25.624;2022-07-04T07:49:39;38.40;24.50
68387;DHT22;55338;43.062;25.624;2022-07-04T07:52:06;37.90;24.00
68387;DHT22;55338;43.062;25.624;2022-07-04T07:54:32;37.70;25.00
68387;DHT22;55338;43.062;25.624;2022-07-04T07:56:57;37.70;25.00
68387;DHT22;55338;43.062;25.624;2022-07-04T07:59:23;38.00;24.00
68387;DHT22;55338;43.062;25.624;2022-07-04T08:01:49;38.40;24.10
68387;DHT22;55338;43.062;25.624;2022-07-04T08:04:15;38.40;24.30
68387;DHT22;55338;43.062;25.624;2022-07-04T08:06:59;38.60;23.20
68387;DHT22;55338;43.062;25.624;2022-07-04T08:09:24;38.50;23.50
68387;DHT22;55338;43.062;25.624;2022-07-04T08:11:50;38.80;22.50
68387;DHT22;55338;43.062;25.624;2022-07-04T08:14:16;38.80;21.60
68387;DHT22;55338;43.062;25.624;2022-07-04T08:16:42;38.90;22.00
68387;DHT22;55338;43.062;25.624;2022-07-04T08:19:08;38.80;21.10
68387;DHT22;55338;43.062;25.624;2022-07-04T08:21:34;38.80;21.10
68387;DHT22;55338;43.062;25.624;2022-07-04T08:24:00;39.00;21.70
68387;DHT22;55338;43.062;25.624;2022-07-04T08:26:26;39.00;21.60
68387;DHT22;55338;43.062;25.624;2022-07-04T08:28:52;38.80;21.20
68387;DHT22;55338;43.062;25.624;2022-07-04T08:31:19;39.00;21.40
68387;DHT22;55338;43.062;25.624;2022-07-04T08:33:45;39.10;20.80
68387;DHT22;55338;43.062;25.624;2022-07-04T08:36:13;39.00;21.30
68387;DHT22;55338;43.062;25.624;2022-07-04T08:38:38;38.90;21.20
68387;DHT22;55338;43.062;25.624;2022-07-04T08:41:04;38.90;21.30
68387;DHT22;55338;43.062;25.624;2022-07-04T08:43:31;39.20;22.10
68387;DHT22;55338;43.062;25.624;2022-07-04T08:46:06;39.30;21.90
68387;DHT22;55338;43.062;25.624;2022-07-04T08:48:33;39.10;21.60
68387;DHT22;55338;43.062;25.624;2022-07-04T08:54:03;39.50;21.20
68387;DHT22;55338;43.062;25.624;2022-07-04T08:56:49;39.80;20.10
68387;DHT22;55338;43.062;25.624;2022-07-04T08:59:38;39.80;19.70
68387;DHT22;55338;43.062;25.624;2022-07-04T09:02:05;40.10;19.30
68387;DHT22;55338;43.062;25.624;2022-07-04T09:04:32;39.90;19.60
68387;DHT22;55338;43.062;25.624;2022-07-04T09:06:58;39.50;19.90
68387;DHT22;55338;43.062;25.624;2022-07-04T09:09:25;39.70;20.00
68387;DHT22;55338;43.062;25.624;2022-07-04T09:11:51;39.80;19.90
68387;DHT22;55338;43.062;25.624;2022-07-04T09:14:17;40.00;20.00
68387;DHT22;55338;43.062;25.624;2022-07-04T09:16:43;40.00;19.40
68387;DHT22;55338;43.062;25.624;2022-07-04T09:19:19;39.90;19.60
68387;DHT22;55338;43.062;25.624;2022-07-04T09:21:48;39.70;20.00
68387;DHT22;55338;43.062;25.624;2022-07-04T09:24:15;39.80;19.30
68387;DHT22;55338;43.062;25.624;2022-07-04T09:26:45;39.90;19.30
68387;DHT22;55338;43.062;25.624;2022-07-04T09:29:12;40.00;19.70
68387;DHT22;55338;43.062;25.624;2022-07-04T09:31:38;40.30;19.20
68387;DHT22;55338;43.062;25.624;2022-07-04T09:34:06;40.00;20.10
68387;DHT22;55338;43.062;25.624;2022-07-04T09:36:40;39.20;21.00
68387;DHT22;55338;43.062;25.624;2022-07-04T09:39:20;39.50;20.30
68387;DHT22;55338;43.062;25.624;2022-07-04T09:44:21;40.10;19.70
68387;DHT22;55338;43.062;25.624;2022-07-04T09:46:47;40.10;19.50
68387;DHT22;55338;43.062;25.624;2022-07-04T09:49:13;40.10;19.60
68387;DHT22;55338;43.062;25.624;2022-07-04T09:51:50;40.00;19.70
68387;DHT22;55338;43.062;25.624;2022-07-04T09:56:55;40.00;19.20
68387;DHT22;55338;43.062;25.624;2022-07-04T09:59:22;39.90;18.90
68387;DHT22;55338;43.062;25.624;2022-07-04T10:01:49;39.80;19.10
68387;DHT22;55338;43.062;25.624;2022-07-04T10:04:15;39.90;19.00
68387;DHT22;55338;43.062;25.624;2022-07-04T10:06:42;40.10;19.50
68387;DHT22;55338;43.062;25.624;2022-07-04T10:09:16;39.90;19.20
68387;DHT22;55338;43.062;25.624;2022-07-04T10:11:45;39.90;20.10
68387;DHT22;55338;43.062;25.624;2022-07-04T10:14:12;40.00;20.30
68387;DHT22;55338;43.062;25.624;2022-07-04T10:16:39;40.30;19.40
68387;DHT22;55338;43.062;25.624;2022-07-04T10:19:06;40.60;19.30
68387;DHT22;55338;43.062;25.624;2022-07-04T10:21:33;40.30;19.20
68387;DHT22;55338;43.062;25.624;2022-07-04T10:24:00;40.40;19.50
68387;DHT22;55338;43.062;25.624;2022-07-04T10:26:27;41.00;19.20
68387;DHT22;55338;43.062;25.624;2022-07-04T10:28:55;40.70;19.50
68387;DHT22;55338;43.062;25.624;2022-07-04T10:31:23;40.30;20.20
68387;DHT22;55338;43.062;25.624;2022-07-04T10:33:51;40.30;20.60
68387;DHT22;55338;43.062;25.624;2022-07-04T10:36:23;40.60;19.90
68387;DHT22;55338;43.062;25.624;2022-07-04T10:38:56;40.70;19.60
68387;DHT22;55338;43.062;25.624;2022-07-04T10:41:25;40.60;19.40
68387;DHT22;55338;43.062;25.624;2022-07-04T10:43:52;40.80;19.00
68387;DHT22;55338;43.062;25.624;2022-07-04T10:46:26;40.80;19.20
68387;DHT22;55338;43.062;25.624;2022-07-04T10:51:41;40.90;18.90
68387;DHT22;55338;43.062;25.624;2022-07-04T10:54:27;40.70;19.80
68387;DHT22;55338;43.062;25.624;2022-07-04T10:59:30;41.00;19.20
68387;DHT22;55338;43.062;25.624;2022-07-04T11:07:20;41.00;19.00
68387;DHT22;55338;43.062;25.624;2022-07-04T11:18:10;41.00;19.00
68387;DHT22;55338;43.062;25.624;2022-07-04T11:20:42;41.20;19.10
68387;DHT22;55338;43.062;25.624;2022-07-04T11:23:11;41.50;17.60
68387;DHT22;55338;43.062;25.624;2022-07-04T11:25:38;41.50;17.50
68387;DHT22;55338;43.062;25.624;2022-07-04T11:28:22;41.50;17.50
68387;DHT22;55338;43.062;25.624;2022-07-04T11:30:50;41.70;17.30
68387;DHT22;55338;43.062;25.624;2022-07-04T11:33:21;41.20;17.70
68387;DHT22;55338;43.062;25.624;2022-07-04T11:36:05;41.30;17.30
68387;DHT22;55338;43.062;25.624;2022-07-04T11:38:52;41.50;17.60
68387;DHT22;55338;43.062;25.624;2022-07-04T11:41:23;41.50;17.40
68387;DHT22;55338;43.062;25.624;2022-07-04T11:44:10;41.80;17.50
68387;DHT22;55338;43.062;25.624;2022-07-04T11:47:09;41.70;16.90
68387;DHT22;55338;43.062;25.624;2022-07-04T11:49:40;41.90;16.30
68387;DHT22;55338;43.062;25.624;2022-07-04T11:52:06;42.10;16.80
68387;DHT22;55338;43.062;25.624;2022-07-04T11:54:33;42.20;16.70
68387;DHT22;55338;43.062;25.624;2022-07-04T11:57:25;41.80;16.60
68387;DHT22;55338;43.062;25.624;2022-07-04T12:02:18;41.90;16.10
68387;DHT22;55338;43.062;25.624;2022-07-04T12:04:45;42.20;16.10
68387;DHT22;55338;43.062;25.624;2022-07-04T12:07:19;42.00;16.50
68387;DHT22;55338;43.062;25.624;2022-07-04T12:09:46;41.90;16.10
68387;DHT22;55338;43.062;25.624;2022-07-04T12:12:13;41.80;16.00
68387;DHT22;55338;43.062;25.624;2022-07-04T12:14:40;42.10;15.80
68387;DHT22;55338;43.062;25.624;2022-07-04T12:17:22;41.60;16.70
68387;DHT22;55338;43.062;25.624;2022-07-04T12:22:49;41.40;16.50
68387;DHT22;55338;43.062;25.624;2022-07-04T12:25:30;41.80;16.30
68387;DHT22;55338;43.062;25.624;2022-07-04T12:28:05;42.10;16.80
68387;DHT22;55338;43.062;25.624;2022-07-04T12:30:33;42.00;16.60
68387;DHT22;55338;43.062;25.624;2022-07-04T12:33:01;42.40;16.90
68387;DHT22;55338;43.062;25.624;2022-07-04T12:35:44;42.40;16.00
68387;DHT22;55338;43.062;25.624;2022-07-04T12:38:16;42.30;15.60
68387;DHT22;55338;43.062;25.624;2022-07-04T12:41:12;42.20;15.90
68387;DHT22;55338;43.062;25.624;2022-07-04T12:48:37;41.90;15.30
68387;DHT22;55338;43.062;25.624;2022-07-04T12:51:23;41.80;15.40
68387;DHT22;55338;43.062;25.624;2022-07-04T12:53:51;41.80;16.40
68387;DHT22;55338;43.062;25.624;2022-07-04T12:56:38;42.20;16.30
68387;DHT22;55338;43.062;25.624;2022-07-04T12:59:05;42.60;16.20
68387;DHT22;55338;43.062;25.624;2022-07-04T13:01:31;42.40;16.20
68387;DHT22;55338;43.062;25.624;2022-07-04T13:03:58;42.40;16.20
68387;DHT22;55338;43.062;25.624;2022-07-04T13:06:24;42.60;15.90
68387;DHT22;55338;43.062;25.624;2022-07-04T13:08:50;42.20;15.80
68387;DHT22;55338;43.062;25.624;2022-07-04T13:11:16;41.90;16.10
68387;DHT22;55338;43.062;25.624;2022-07-04T13:14:01;42.20;16.50
68387;DHT22;55338;43.062;25.624;2022-07-04T13:16:26;42.40;15.20
68387;DHT22;55338;43.062;25.624;2022-07-04T13:18:52;42.30;15.50
68387;DHT22;55338;43.062;25.624;2022-07-04T13:21:18;42.10;14.80
68387;DHT22;55338;43.062;25.624;2022-07-04T13:23:44;41.80;14.90
68387;DHT22;55338;43.062;25.624;2022-07-04T13:26:10;41.90;14.40
68387;DHT22;55338;43.062;25.624;2022-07-04T13:28:35;42.10;14.30
68387;DHT22;55338;43.062;25.624;2022-07-04T13:31:01;42.20;15.00
68387;DHT22;55338;43.062;25.624;2022-07-04T13:33:27;42.10;15.40
68387;DHT22;55338;43.062;25.624;2022-07-04T13:35:53;41.80;14.00
68387;DHT22;55338;43.062;25.624;2022-07-04T13:38:19;41.90;14.90
68387;DHT22;55338;43.062;25.624;2022-07-04T13:40:45;41.70;15.30
68387;DHT22;55338;43.062;25.624;2022-07-04T13:43:12;42.10;15.60
68387;DHT22;55338;43.062;25.624;2022-07-04T13:45:39;42.20;15.40
68387;DHT22;55338;43.062;25.624;2022-07-04T13:48:07;42.20;16.00
68387;DHT22;55338;43.062;25.624;2022-07-04T13:50:33;42.60;15.60
68387;DHT22;55338;43.062;25.624;2022-07-04T13:53:03;42.70;15.60
68387;DHT22;55338;43.062;25.624;2022-07-04T13:55:29;42.60;15.60
68387;DHT22;55338;43.062;25.624;2022-07-04T13:57:55;42.20;15.20
68387;DHT22;55338;43.062;25.624;2022-07-04T14:00:21;41.70;15.60
68387;DHT22;55338;43.062;25.624;2022-07-04T14:02:47;41.60;16.20
68387;DHT22;55338;43.062;25.624;2022-07-04T14:05:12;41.40;16.60
68387;DHT22;55338;43.062;25.624;2022-07-04T14:07:38;41.50;16.50
68387;DHT22;55338;43.062;25.624;2022-07-04T14:10:10;41.80;15.80
68387;DHT22;55338;43.062;25.624;2022-07-04T14:12:36;41.70;16.40
68387;DHT22;55338;43.062;25.624;2022-07-04T14:15:02;40.80;17.20
68387;DHT22;55338;43.062;25.624;2022-07-04T14:17:28;40.60;18.00
68387;DHT22;55338;43.062;25.624;2022-07-04T14:19:54;40.20;18.60
68387;DHT22;55338;43.062;25.624;2022-07-04T14:22:21;39.90;18.60
68387;DHT22;55338;43.062;25.624;2022-07-04T14:24:47;39.70;18.90
68387;DHT22;55338;43.062;25.624;2022-07-04T14:27:13;40.20;18.90
68387;DHT22;55338;43.062;25.624;2022-07-04T14:29:39;40.30;18.20
68387;DHT22;55338;43.062;25.624;2022-07-04T14:32:07;40.30;18.10
68387;DHT22;55338;43.062;25.624;2022-07-04T14:34:32;39.60;18.90
68387;DHT22;55338;43.062;25.624;2022-07-04T14:36:58;39.50;19.00
68387;DHT22;55338;43.062;25.624;2022-07-04T14:39:24;39.30;19.90
68387;DHT22;55338;43.062;25.624;2022-07-04T14:41:50;38.70;20.60
68387;DHT22;55338;43.062;25.624;2022-07-04T14:44:16;38.50;20.70
68387;DHT22;55338;43.062;25.624;2022-07-04T14:46:42;38.80;20.30
68387;DHT22;55338;43.062;25.624;2022-07-04T14:49:08;38.40;21.40
68387;DHT22;55338;43.062;25.624;2022-07-04T14:51:34;38.00;22.40
68387;DHT22;55338;43.062;25.624;2022-07-04T14:53:59;37.90;22.10
68387;DHT22;55338;43.062;25.624;2022-07-04T14:56:25;37.60;22.90
68387;DHT22;55338;43.062;25.624;2022-07-04T14:58:51;37.80;21.70
68387;DHT22;55338;43.062;25.624;2022-07-04T15:01:17;38.00;22.10
68387;DHT22;55338;43.062;25.624;2022-07-04T15:03:42;38.30;21.10
68387;DHT22;55338;43.062;25.624;2022-07-04T15:06:08;38.40;21.40
68387;DHT22;55338;43.062;25.624;2022-07-04T15:08:34;38.00;21.80
68387;DHT22;55338;43.062;25.624;2022-07-04T15:11:00;37.80;21.70
68387;DHT22;55338;43.062;25.624;2022-07-04T15:13:25;37.70;21.80
68387;DHT22;55338;43.062;25.624;2022-07-04T15:15:51;37.60;22.80
68387;DHT22;55338;43.062;25.624;2022-07-04T15:18:17;37.30;22.80
68387;DHT22;55338;43.062;25.624;2022-07-04T15:20:42;37.10;24.10
68387;DHT22;55338;43.062;25.624;2022-07-04T15:23:43;36.90;24.00
68387;DHT22;55338;43.062;25.624;2022-07-04T15:26:28;36.80;24.00
68387;DHT22;55338;43.062;25.624;2022-07-04T15:28:53;36.50;24.50
68387;DHT22;55338;43.062;25.624;2022-07-04T15:31:19;36.20;25.30
68387;DHT22;55338;43.062;25.624;2022-07-04T15:33:45;36.10;26.40
68387;DHT22;55338;43.062;25.624;2022-07-04T15:36:12;36.00;26.70
68387;DHT22;55338;43.062;25.624;2022-07-04T15:38:38;35.80;26.00
68387;DHT22;55338;43.062;25.624;2022-07-04T15:41:03;35.70;26.20
68387;DHT22;55338;43.062;25.624;2022-07-04T15:43:30;35.50;26.40
68387;DHT22;55338;43.062;25.624;2022-07-04T15:45:57;35.40;26.10
68387;DHT22;55338;43.062;25.624;2022-07-04T15:48:25;35.10;27.30
68387;DHT22;55338;43.062;25.624;2022-07-04T15:50:51;35.00;27.80
68387;DHT22;55338;43.062;25.624;2022-07-04T15:53:17;34.90;27.50
68387;DHT22;55338;43.062;25.624;2022-07-04T15:55:42;34.80;28.00